sensor_id;sensor_type;location;lat;lon;timestamp;P1;durP1;ratioP1;P2;durP2;ratioP2
75941;SDS011;64622;46.220;19.878;2023-08-17T00:01:52;48.08;;;27.52;;
75941;SDS011;64622;46.220;19.878;2023-08-17T00:04:19;48.83;;;27.63;;
75941;SDS011;64622;46.220;19.878;2023-08-17T00:06:45;46.42;;;26.65;;
75941;SDS011;64622;46.220;19.878;2023-08-17T00:09:13;45.88;;;26.98;;
75941;SDS011;64622;46.220;19.878;2023-08-17T00:11:39;45.10;;;26.45;;
75941;SDS011;64622;46.220;19.878;2023-08-17T00:14:06;48.50;;;27.27;;
75941;SDS011;64622;46.220;19.878;2023-08-17T00:16:32;40.90;;;25.07;;
75941;SDS011;64622;46.220;19.878;2023-08-17T00:18:59;45.47;;;26.25;;
75941;SDS011;64622;46.220;19.878;2023-08-17T00:21:25;44.85;;;26.87;;
75941;SDS011;64622;46.220;19.878;2023-08-17T00:23:52;44.10;;;25.88;;
75941;SDS011;64622;46.220;19.878;2023-08-17T00:26:18;41.50;;;25.42;;
75941;SDS011;64622;46.220;19.878;2023-08-17T00:28:46;43.57;;;25.57;;
75941;SDS011;64622;46.220;19.878;2023-08-17T00:31:12;43.85;;;26.00;;
75941;SDS011;64622;46.220;19.878;2023-08-17T00:33:39;44.10;;;24.87;;
75941;SDS011;64622;46.220;19.878;2023-08-17T00:36:07;46.10;;;26.65;;
75941;SDS011;64622;46.220;19.878;2023-08-17T00:38:34;40.60;;;24.83;;
75941;SDS011;64622;46.220;19.878;2023-08-17T00:41:00;37.67;;;24.07;;
75941;SDS011;64622;46.220;19.878;2023-08-17T00:43:27;34.42;;;22.42;;
75941;SDS011;64622;46.220;19.878;2023-08-17T00:45:54;35.58;;;22.45;;
75941;SDS011;64622;46.220;19.878;2023-08-17T00:48:22;35.40;;;23.00;;
75941;SDS011;64622;46.220;19.878;2023-08-17T00:50:50;30.30;;;21.02;;
75941;SDS011;64622;46.220;19.878;2023-08-17T00:53:18;31.60;;;18.97;;
75941;SDS011;64622;46.220;19.878;2023-08-17T00:55:46;28.48;;;19.65;;
75941;SDS011;64622;46.220;19.878;2023-08-17T00:58:13;35.55;;;20.52;;
75941;SDS011;64622;46.220;19.878;2023-08-17T01:00:40;29.60;;;18.83;;
75941;SDS011;64622;46.220;19.878;2023-08-17T01:03:07;29.10;;;19.27;;
75941;SDS011;64622;46.220;19.878;2023-08-17T01:05:34;25.60;;;17.87;;
75941;SDS011;64622;46.220;19.878;2023-08-17T01:08:00;27.90;;;18.73;;
75941;SDS011;64622;46.220;19.878;2023-08-17T01:10:32;27.77;;;19.15;;
75941;SDS011;64622;46.220;19.878;2023-08-17T01:13:38;25.83;;;17.52;;
75941;SDS011;64622;46.220;19.878;2023-08-17T01:16:23;27.45;;;18.27;;
75941;SDS011;64622;46.220;19.878;2023-08-17T01:18:57;26.93;;;17.03;;
75941;SDS011;64622;46.220;19.878;2023-08-17T01:21:33;23.15;;;16.37;;
75941;SDS011;64622;46.220;19.878;2023-08-17T01:24:03;22.42;;;15.18;;
75941;SDS011;64622;46.220;19.878;2023-08-17T01:26:31;22.23;;;16.33;;
75941;SDS011;64622;46.220;19.878;2023-08-17T01:28:57;21.67;;;16.23;;
75941;SDS011;64622;46.220;19.878;2023-08-17T01:31:25;23.47;;;16.47;;
75941;SDS011;64622;46.220;19.878;2023-08-17T01:34:04;22.13;;;15.70;;
75941;SDS011;64622;46.220;19.878;2023-08-17T01:36:39;21.87;;;15.00;;
75941;SDS011;64622;46.220;19.878;2023-08-17T01:39:10;24.27;;;15.75;;
75941;SDS011;64622;46.220;19.878;2023-08-17T01:41:37;25.85;;;16.20;;
75941;SDS011;64622;46.220;19.878;2023-08-17T01:44:06;24.20;;;15.83;;
75941;SDS011;64622;46.220;19.878;2023-08-17T01:46:33;24.12;;;16.70;;
75941;SDS011;64622;46.220;19.878;2023-08-17T01:49:00;23.52;;;16.27;;
75941;SDS011;64622;46.220;19.878;2023-08-17T01:51:26;27.50;;;17.60;;
75941;SDS011;64622;46.220;19.878;2023-08-17T01:53:53;24.65;;;17.23;;
75941;SDS011;64622;46.220;19.878;2023-08-17T01:56:20;26.87;;;17.63;;
75941;SDS011;64622;46.220;19.878;2023-08-17T01:58:46;27.25;;;17.62;;
75941;SDS011;64622;46.220;19.878;2023-08-17T02:01:13;27.85;;;17.95;;
75941;SDS011;64622;46.220;19.878;2023-08-17T02:03:40;26.55;;;17.90;;
75941;SDS011;64622;46.220;19.878;2023-08-17T02:06:06;26.90;;;17.73;;
75941;SDS011;64622;46.220;19.878;2023-08-17T02:08:33;29.00;;;17.87;;
75941;SDS011;64622;46.220;19.878;2023-08-17T02:11:01;29.23;;;18.27;;
75941;SDS011;64622;46.220;19.878;2023-08-17T02:13:27;35.58;;;19.30;;
75941;SDS011;64622;46.220;19.878;2023-08-17T02:15:54;31.37;;;19.30;;
75941;SDS011;64622;46.220;19.878;2023-08-17T02:18:21;32.85;;;19.40;;
75941;SDS011;64622;46.220;19.878;2023-08-17T02:20:47;30.43;;;19.40;;
75941;SDS011;64622;46.220;19.878;2023-08-17T02:23:14;31.60;;;19.50;;
75941;SDS011;64622;46.220;19.878;2023-08-17T02:25:41;29.52;;;19.17;;
75941;SDS011;64622;46.220;19.878;2023-08-17T02:28:07;32.33;;;19.17;;
75941;SDS011;64622;46.220;19.878;2023-08-17T02:30:34;29.65;;;17.65;;
75941;SDS011;64622;46.220;19.878;2023-08-17T02:33:01;30.40;;;18.53;;
75941;SDS011;64622;46.220;19.878;2023-08-17T02:35:27;31.73;;;19.30;;
75941;SDS011;64622;46.220;19.878;2023-08-17T02:37:54;27.30;;;16.83;;
75941;SDS011;64622;46.220;19.878;2023-08-17T02:40:21;26.87;;;17.15;;
75941;SDS011;64622;46.220;19.878;2023-08-17T02:42:48;30.37;;;16.98;;
75941;SDS011;64622;46.220;19.878;2023-08-17T02:45:15;27.33;;;17.17;;
75941;SDS011;64622;46.220;19.878;2023-08-17T02:47:42;26.87;;;15.73;;
75941;SDS011;64622;46.220;19.878;2023-08-17T02:50:08;24.63;;;15.45;;
75941;SDS011;64622;46.220;19.878;2023-08-17T02:52:35;27.73;;;15.93;;
75941;SDS011;64622;46.220;19.878;2023-08-17T02:55:05;23.30;;;15.18;;
75941;SDS011;64622;46.220;19.878;2023-08-17T02:57:32;22.87;;;14.33;;
75941;SDS011;64622;46.220;19.878;2023-08-17T02:59:58;24.17;;;14.85;;
75941;SDS011;64622;46.220;19.878;2023-08-17T03:02:25;22.55;;;13.98;;
75941;SDS011;64622;46.220;19.878;2023-08-17T03:04:52;25.17;;;13.75;;
75941;SDS011;64622;46.220;19.878;2023-08-17T03:07:18;23.67;;;14.02;;
75941;SDS011;64622;46.220;19.878;2023-08-17T03:09:45;24.73;;;13.90;;
75941;SDS011;64622;46.220;19.878;2023-08-17T03:12:12;22.17;;;14.00;;
75941;SDS011;64622;46.220;19.878;2023-08-17T03:14:38;19.35;;;12.82;;
75941;SDS011;64622;46.220;19.878;2023-08-17T03:17:05;21.65;;;13.23;;
75941;SDS011;64622;46.220;19.878;2023-08-17T03:19:33;19.05;;;11.85;;
75941;SDS011;64622;46.220;19.878;2023-08-17T03:22:01;17.93;;;12.27;;
75941;SDS011;64622;46.220;19.878;2023-08-17T03:24:28;18.62;;;11.82;;
75941;SDS011;64622;46.220;19.878;2023-08-17T03:26:55;18.90;;;11.32;;
75941;SDS011;64622;46.220;19.878;2023-08-17T03:29:23;15.75;;;10.63;;
75941;SDS011;64622;46.220;19.878;2023-08-17T03:31:52;18.15;;;10.45;;
75941;SDS011;64622;46.220;19.878;2023-08-17T03:34:19;16.07;;;10.30;;
75941;SDS011;64622;46.220;19.878;2023-08-17T03:36:45;18.12;;;10.70;;
75941;SDS011;64622;46.220;19.878;2023-08-17T03:39:12;17.37;;;11.70;;
75941;SDS011;64622;46.220;19.878;2023-08-17T03:41:39;17.83;;;10.70;;
75941;SDS011;64622;46.220;19.878;2023-08-17T03:44:05;17.40;;;11.48;;
75941;SDS011;64622;46.220;19.878;2023-08-17T03:46:33;16.93;;;10.80;;
75941;SDS011;64622;46.220;19.878;2023-08-17T03:48:59;17.75;;;10.93;;
75941;SDS011;64622;46.220;19.878;2023-08-17T03:51:26;17.30;;;11.12;;
75941;SDS011;64622;46.220;19.878;2023-08-17T03:53:53;19.08;;;11.20;;
75941;SDS011;64622;46.220;19.878;2023-08-17T03:56:22;15.80;;;10.00;;
75941;SDS011;64622;46.220;19.878;2023-08-17T03:58:49;15.87;;;10.37;;
75941;SDS011;64622;46.220;19.878;2023-08-17T04:01:16;15.95;;;9.75;;
75941;SDS011;64622;46.220;19.878;2023-08-17T04:03:43;15.10;;;9.55;;
75941;SDS011;64622;46.220;19.878;2023-08-17T04:06:10;14.77;;;10.15;;
75941;SDS011;64622;46.220;19.878;2023-08-17T04:08:37;15.50;;;10.18;;
75941;SDS011;64622;46.220;19.878;2023-08-17T04:11:04;15.50;;;10.17;;
75941;SDS011;64622;46.220;19.878;2023-08-17T04:13:31;17.62;;;9.77;;
75941;SDS011;64622;46.220;19.878;2023-08-17T04:15:58;16.52;;;10.95;;
75941;SDS011;64622;46.220;19.878;2023-08-17T04:18:25;17.08;;;10.38;;
75941;SDS011;64622;46.220;19.878;2023-08-17T04:20:52;18.62;;;11.45;;
75941;SDS011;64622;46.220;19.878;2023-08-17T04:23:19;18.10;;;10.50;;
75941;SDS011;64622;46.220;19.878;2023-08-17T04:25:46;18.05;;;11.05;;
75941;SDS011;64622;46.220;19.878;2023-08-17T04:28:13;18.10;;;10.73;;
75941;SDS011;64622;46.220;19.878;2023-08-17T04:30:40;17.50;;;10.35;;
75941;SDS011;64622;46.220;19.878;2023-08-17T04:33:07;15.68;;;9.80;;
75941;SDS011;64622;46.220;19.878;2023-08-17T04:35:34;16.10;;;9.80;;
75941;SDS011;64622;46.220;19.878;2023-08-17T04:38:00;14.30;;;9.35;;
75941;SDS011;64622;46.220;19.878;2023-08-17T04:40:28;15.65;;;9.57;;
75941;SDS011;64622;46.220;19.878;2023-08-17T04:42:56;17.12;;;10.13;;
75941;SDS011;64622;46.220;19.878;2023-08-17T04:45:22;13.65;;;9.38;;
75941;SDS011;64622;46.220;19.878;2023-08-17T04:47:50;20.57;;;9.27;;
75941;SDS011;64622;46.220;19.878;2023-08-17T04:50:16;17.33;;;8.82;;
75941;SDS011;64622;46.220;19.878;2023-08-17T04:52:43;14.27;;;8.55;;
75941;SDS011;64622;46.220;19.878;2023-08-17T04:55:11;15.82;;;9.23;;
75941;SDS011;64622;46.220;19.878;2023-08-17T04:57:38;15.95;;;9.02;;
75941;SDS011;64622;46.220;19.878;2023-08-17T05:00:05;12.03;;;8.30;;
75941;SDS011;64622;46.220;19.878;2023-08-17T05:02:36;11.63;;;8.00;;
75941;SDS011;64622;46.220;19.878;2023-08-17T05:05:04;14.38;;;8.68;;
75941;SDS011;64622;46.220;19.878;2023-08-17T05:07:31;13.40;;;7.80;;
75941;SDS011;64622;46.220;19.878;2023-08-17T05:09:58;11.45;;;7.18;;
75941;SDS011;64622;46.220;19.878;2023-08-17T05:12:25;15.67;;;7.40;;
75941;SDS011;64622;46.220;19.878;2023-08-17T05:14:52;14.80;;;7.90;;
75941;SDS011;64622;46.220;19.878;2023-08-17T05:17:18;13.45;;;7.78;;
75941;SDS011;64622;46.220;19.878;2023-08-17T05:19:45;13.07;;;7.65;;
75941;SDS011;64622;46.220;19.878;2023-08-17T05:22:12;14.23;;;7.85;;
75941;SDS011;64622;46.220;19.878;2023-08-17T05:24:39;11.40;;;6.63;;
75941;SDS011;64622;46.220;19.878;2023-08-17T05:27:06;10.30;;;6.80;;
75941;SDS011;64622;46.220;19.878;2023-08-17T05:29:33;13.07;;;6.97;;
75941;SDS011;64622;46.220;19.878;2023-08-17T05:32:00;14.43;;;7.75;;
75941;SDS011;64622;46.220;19.878;2023-08-17T05:34:27;14.70;;;7.20;;
75941;SDS011;64622;46.220;19.878;2023-08-17T05:36:54;10.90;;;6.63;;
75941;SDS011;64622;46.220;19.878;2023-08-17T05:39:21;12.93;;;7.03;;
75941;SDS011;64622;46.220;19.878;2023-08-17T05:41:47;16.17;;;7.30;;
75941;SDS011;64622;46.220;19.878;2023-08-17T05:44:14;12.07;;;7.10;;
75941;SDS011;64622;46.220;19.878;2023-08-17T05:46:41;11.30;;;6.78;;
75941;SDS011;64622;46.220;19.878;2023-08-17T05:49:08;11.67;;;6.90;;
75941;SDS011;64622;46.220;19.878;2023-08-17T05:51:34;11.55;;;7.07;;
75941;SDS011;64622;46.220;19.878;2023-08-17T05:54:01;11.40;;;7.25;;
75941;SDS011;64622;46.220;19.878;2023-08-17T05:56:27;12.70;;;6.85;;
75941;SDS011;64622;46.220;19.878;2023-08-17T05:58:54;11.80;;;7.30;;
75941;SDS011;64622;46.220;19.878;2023-08-17T06:01:20;10.70;;;6.77;;
75941;SDS011;64622;46.220;19.878;2023-08-17T06:03:47;11.52;;;7.05;;
75941;SDS011;64622;46.220;19.878;2023-08-17T06:06:14;13.70;;;7.93;;
75941;SDS011;64622;46.220;19.878;2023-08-17T06:08:40;10.88;;;7.20;;
75941;SDS011;64622;46.220;19.878;2023-08-17T06:11:07;11.18;;;6.87;;
75941;SDS011;64622;46.220;19.878;2023-08-17T06:13:34;13.00;;;6.43;;
75941;SDS011;64622;46.220;19.878;2023-08-17T06:16:01;11.73;;;6.97;;
75941;SDS011;64622;46.220;19.878;2023-08-17T06:18:29;14.00;;;6.72;;
75941;SDS011;64622;46.220;19.878;2023-08-17T06:20:56;11.77;;;6.60;;
75941;SDS011;64622;46.220;19.878;2023-08-17T06:23:23;11.55;;;7.07;;
75941;SDS011;64622;46.220;19.878;2023-08-17T06:25:50;12.40;;;7.23;;
75941;SDS011;64622;46.220;19.878;2023-08-17T06:28:17;12.27;;;7.50;;
75941;SDS011;64622;46.220;19.878;2023-08-17T06:30:43;10.88;;;7.15;;
75941;SDS011;64622;46.220;19.878;2023-08-17T06:33:10;13.80;;;7.80;;
75941;SDS011;64622;46.220;19.878;2023-08-17T06:35:36;12.63;;;7.35;;
75941;SDS011;64622;46.220;19.878;2023-08-17T06:38:03;11.63;;;7.03;;
75941;SDS011;64622;46.220;19.878;2023-08-17T06:40:30;12.05;;;6.82;;
75941;SDS011;64622;46.220;19.878;2023-08-17T06:42:56;11.23;;;6.85;;
75941;SDS011;64622;46.220;19.878;2023-08-17T06:45:22;12.68;;;6.95;;
75941;SDS011;64622;46.220;19.878;2023-08-17T06:47:49;12.48;;;7.20;;
75941;SDS011;64622;46.220;19.878;2023-08-17T06:50:16;12.23;;;7.57;;
75941;SDS011;64622;46.220;19.878;2023-08-17T06:52:42;12.88;;;8.27;;
75941;SDS011;64622;46.220;19.878;2023-08-17T06:55:09;14.18;;;8.10;;
75941;SDS011;64622;46.220;19.878;2023-08-17T06:57:39;12.73;;;6.65;;
75941;SDS011;64622;46.220;19.878;2023-08-17T07:00:05;14.10;;;7.43;;
75941;SDS011;64622;46.220;19.878;2023-08-17T07:02:33;12.33;;;6.63;;
75941;SDS011;64622;46.220;19.878;2023-08-17T07:05:00;14.63;;;7.87;;
75941;SDS011;64622;46.220;19.878;2023-08-17T07:07:27;16.45;;;7.75;;
75941;SDS011;64622;46.220;19.878;2023-08-17T07:09:53;12.52;;;7.20;;
75941;SDS011;64622;46.220;19.878;2023-08-17T07:12:20;11.75;;;6.25;;
75941;SDS011;64622;46.220;19.878;2023-08-17T07:14:46;10.70;;;6.90;;
75941;SDS011;64622;46.220;19.878;2023-08-17T07:17:13;11.93;;;6.30;;
75941;SDS011;64622;46.220;19.878;2023-08-17T07:19:40;11.10;;;5.15;;
75941;SDS011;64622;46.220;19.878;2023-08-17T07:22:06;11.30;;;6.40;;
75941;SDS011;64622;46.220;19.878;2023-08-17T07:24:33;10.43;;;5.15;;
75941;SDS011;64622;46.220;19.878;2023-08-17T07:26:59;11.77;;;5.80;;
75941;SDS011;64622;46.220;19.878;2023-08-17T07:29:26;10.25;;;5.55;;
75941;SDS011;64622;46.220;19.878;2023-08-17T07:31:53;12.02;;;6.18;;
75941;SDS011;64622;46.220;19.878;2023-08-17T07:34:20;10.25;;;6.10;;
75941;SDS011;64622;46.220;19.878;2023-08-17T07:36:47;10.27;;;6.10;;
75941;SDS011;64622;46.220;19.878;2023-08-17T07:39:13;13.30;;;6.40;;
75941;SDS011;64622;46.220;19.878;2023-08-17T07:41:40;10.90;;;5.90;;
75941;SDS011;64622;46.220;19.878;2023-08-17T07:44:06;11.63;;;5.80;;
75941;SDS011;64622;46.220;19.878;2023-08-17T07:46:33;10.93;;;6.85;;
75941;SDS011;64622;46.220;19.878;2023-08-17T07:48:59;14.48;;;6.07;;
75941;SDS011;64622;46.220;19.878;2023-08-17T07:51:26;9.70;;;6.30;;
75941;SDS011;64622;46.220;19.878;2023-08-17T07:53:52;10.75;;;6.45;;
75941;SDS011;64622;46.220;19.878;2023-08-17T07:56:19;10.32;;;5.65;;
75941;SDS011;64622;46.220;19.878;2023-08-17T07:58:45;12.60;;;6.95;;
75941;SDS011;64622;46.220;19.878;2023-08-17T08:01:12;11.57;;;6.47;;
75941;SDS011;64622;46.220;19.878;2023-08-17T08:03:39;11.67;;;6.37;;
75941;SDS011;64622;46.220;19.878;2023-08-17T08:06:06;11.50;;;6.68;;
75941;SDS011;64622;46.220;19.878;2023-08-17T08:08:32;11.23;;;6.53;;
75941;SDS011;64622;46.220;19.878;2023-08-17T08:10:58;10.88;;;6.15;;
75941;SDS011;64622;46.220;19.878;2023-08-17T08:13:25;11.63;;;6.80;;
75941;SDS011;64622;46.220;19.878;2023-08-17T08:15:52;12.13;;;7.00;;
75941;SDS011;64622;46.220;19.878;2023-08-17T08:18:19;10.10;;;6.85;;
75941;SDS011;64622;46.220;19.878;2023-08-17T08:20:45;9.95;;;6.65;;
75941;SDS011;64622;46.220;19.878;2023-08-17T08:23:12;12.85;;;7.78;;
75941;SDS011;64622;46.220;19.878;2023-08-17T08:25:39;14.20;;;7.07;;
75941;SDS011;64622;46.220;19.878;2023-08-17T08:28:05;13.10;;;7.77;;
75941;SDS011;64622;46.220;19.878;2023-08-17T08:30:32;11.43;;;7.40;;
75941;SDS011;64622;46.220;19.878;2023-08-17T08:32:59;12.20;;;7.15;;
75941;SDS011;64622;46.220;19.878;2023-08-17T08:35:26;11.15;;;6.32;;
75941;SDS011;64622;46.220;19.878;2023-08-17T08:37:54;14.50;;;7.57;;
75941;SDS011;64622;46.220;19.878;2023-08-17T08:40:29;15.00;;;6.77;;
75941;SDS011;64622;46.220;19.878;2023-08-17T08:42:57;15.50;;;7.78;;
75941;SDS011;64622;46.220;19.878;2023-08-17T08:45:24;12.73;;;7.00;;
75941;SDS011;64622;46.220;19.878;2023-08-17T08:47:53;11.52;;;6.82;;
75941;SDS011;64622;46.220;19.878;2023-08-17T08:50:21;11.50;;;6.43;;
75941;SDS011;64622;46.220;19.878;2023-08-17T08:53:02;12.67;;;7.33;;
75941;SDS011;64622;46.220;19.878;2023-08-17T08:55:34;13.20;;;6.90;;
75941;SDS011;64622;46.220;19.878;2023-08-17T08:58:05;11.32;;;7.03;;
75941;SDS011;64622;46.220;19.878;2023-08-17T09:00:33;11.82;;;6.47;;
75941;SDS011;64622;46.220;19.878;2023-08-17T09:03:01;13.62;;;7.82;;
75941;SDS011;64622;46.220;19.878;2023-08-17T09:05:31;12.07;;;6.40;;
75941;SDS011;64622;46.220;19.878;2023-08-17T09:07:57;11.93;;;7.60;;
75941;SDS011;64622;46.220;19.878;2023-08-17T09:10:25;10.27;;;6.55;;
75941;SDS011;64622;46.220;19.878;2023-08-17T09:12:52;12.52;;;6.78;;
75941;SDS011;64622;46.220;19.878;2023-08-17T09:15:18;11.95;;;6.90;;
75941;SDS011;64622;46.220;19.878;2023-08-17T09:17:45;12.90;;;6.83;;
75941;SDS011;64622;46.220;19.878;2023-08-17T09:20:33;12.37;;;7.07;;
75941;SDS011;64622;46.220;19.878;2023-08-17T09:23:03;11.10;;;6.75;;
75941;SDS011;64622;46.220;19.878;2023-08-17T09:25:30;12.20;;;5.85;;
75941;SDS011;64622;46.220;19.878;2023-08-17T09:28:02;11.00;;;6.70;;
75941;SDS011;64622;46.220;19.878;2023-08-17T09:30:51;9.80;;;6.37;;
75941;SDS011;64622;46.220;19.878;2023-08-17T09:33:21;11.63;;;5.90;;
75941;SDS011;64622;46.220;19.878;2023-08-17T09:35:50;11.50;;;7.05;;
75941;SDS011;64622;46.220;19.878;2023-08-17T09:38:18;10.38;;;7.32;;
75941;SDS011;64622;46.220;19.878;2023-08-17T09:40:45;10.55;;;6.12;;
75941;SDS011;64622;46.220;19.878;2023-08-17T09:43:16;11.03;;;5.77;;
75941;SDS011;64622;46.220;19.878;2023-08-17T09:45:44;9.38;;;5.60;;
75941;SDS011;64622;46.220;19.878;2023-08-17T09:48:16;13.35;;;7.95;;
75941;SDS011;64622;46.220;19.878;2023-08-17T09:50:44;10.23;;;5.97;;
75941;SDS011;64622;46.220;19.878;2023-08-17T09:53:15;10.95;;;6.85;;
75941;SDS011;64622;46.220;19.878;2023-08-17T09:55:43;11.97;;;6.60;;
75941;SDS011;64622;46.220;19.878;2023-08-17T09:58:13;11.25;;;6.70;;
75941;SDS011;64622;46.220;19.878;2023-08-17T10:00:47;10.07;;;6.43;;
75941;SDS011;64622;46.220;19.878;2023-08-17T10:03:18;10.50;;;6.75;;
75941;SDS011;64622;46.220;19.878;2023-08-17T10:05:47;10.55;;;7.20;;
75941;SDS011;64622;46.220;19.878;2023-08-17T10:20:01;10.43;;;6.03;;
75941;SDS011;64622;46.220;19.878;2023-08-17T10:22:38;10.20;;;6.00;;
75941;SDS011;64622;46.220;19.878;2023-08-17T10:25:11;9.77;;;6.43;;
75941;SDS011;64622;46.220;19.878;2023-08-17T10:27:40;10.30;;;6.25;;
75941;SDS011;64622;46.220;19.878;2023-08-17T10:30:10;11.85;;;6.62;;
75941;SDS011;64622;46.220;19.878;2023-08-17T10:32:38;11.43;;;7.57;;
75941;SDS011;64622;46.220;19.878;2023-08-17T10:35:07;10.75;;;6.40;;
75941;SDS011;64622;46.220;19.878;2023-08-17T10:37:34;12.27;;;6.73;;
75941;SDS011;64622;46.220;19.878;2023-08-17T10:40:01;13.93;;;7.30;;
75941;SDS011;64622;46.220;19.878;2023-08-17T10:42:32;10.57;;;6.93;;
75941;SDS011;64622;46.220;19.878;2023-08-17T10:45:00;10.23;;;6.65;;
75941;SDS011;64622;46.220;19.878;2023-08-17T10:47:30;11.57;;;6.87;;
75941;SDS011;64622;46.220;19.878;2023-08-17T10:50:00;11.97;;;7.00;;
75941;SDS011;64622;46.220;19.878;2023-08-17T10:52:31;13.43;;;7.10;;
75941;SDS011;64622;46.220;19.878;2023-08-17T10:55:00;12.18;;;7.40;;
75941;SDS011;64622;46.220;19.878;2023-08-17T11:00:13;11.93;;;7.93;;
75941;SDS011;64622;46.220;19.878;2023-08-17T11:02:44;12.47;;;8.27;;
75941;SDS011;64622;46.220;19.878;2023-08-17T11:05:12;13.48;;;7.78;;
75941;SDS011;64622;46.220;19.878;2023-08-17T11:07:43;12.57;;;8.02;;
75941;SDS011;64622;46.220;19.878;2023-08-17T11:10:11;13.60;;;7.60;;
75941;SDS011;64622;46.220;19.878;2023-08-17T11:12:47;12.25;;;8.25;;
75941;SDS011;64622;46.220;19.878;2023-08-17T11:15:14;11.83;;;7.97;;
75941;SDS011;64622;46.220;19.878;2023-08-17T11:17:40;11.93;;;7.50;;
75941;SDS011;64622;46.220;19.878;2023-08-17T11:20:07;10.93;;;6.75;;
75941;SDS011;64622;46.220;19.878;2023-08-17T11:22:35;11.45;;;7.03;;
75941;SDS011;64622;46.220;19.878;2023-08-17T11:25:02;13.05;;;7.35;;
75941;SDS011;64622;46.220;19.878;2023-08-17T11:27:30;12.70;;;7.40;;
75941;SDS011;64622;46.220;19.878;2023-08-17T11:29:56;11.23;;;7.53;;
75941;SDS011;64622;46.220;19.878;2023-08-17T11:32:23;10.88;;;7.37;;
75941;SDS011;64622;46.220;19.878;2023-08-17T11:34:50;11.38;;;7.07;;
75941;SDS011;64622;46.220;19.878;2023-08-17T11:37:17;13.60;;;7.70;;
75941;SDS011;64622;46.220;19.878;2023-08-17T11:39:44;10.53;;;6.60;;
75941;SDS011;64622;46.220;19.878;2023-08-17T11:42:11;11.52;;;7.30;;
75941;SDS011;64622;46.220;19.878;2023-08-17T11:44:37;10.40;;;6.47;;
75941;SDS011;64622;46.220;19.878;2023-08-17T11:47:04;11.05;;;6.70;;
75941;SDS011;64622;46.220;19.878;2023-08-17T11:49:31;10.88;;;6.50;;
75941;SDS011;64622;46.220;19.878;2023-08-17T11:51:57;10.73;;;6.73;;
75941;SDS011;64622;46.220;19.878;2023-08-17T11:54:24;10.63;;;5.70;;
75941;SDS011;64622;46.220;19.878;2023-08-17T11:56:51;12.25;;;5.93;;
75941;SDS011;64622;46.220;19.878;2023-08-17T11:59:17;9.93;;;6.68;;
75941;SDS011;64622;46.220;19.878;2023-08-17T12:01:45;11.43;;;6.10;;
75941;SDS011;64622;46.220;19.878;2023-08-17T12:04:12;11.27;;;6.30;;
75941;SDS011;64622;46.220;19.878;2023-08-17T12:06:42;11.15;;;6.50;;
75941;SDS011;64622;46.220;19.878;2023-08-17T12:09:11;11.25;;;7.05;;
75941;SDS011;64622;46.220;19.878;2023-08-17T12:11:40;10.93;;;5.97;;
75941;SDS011;64622;46.220;19.878;2023-08-17T12:14:08;12.05;;;6.70;;
75941;SDS011;64622;46.220;19.878;2023-08-17T12:16:45;12.53;;;6.60;;
75941;SDS011;64622;46.220;19.878;2023-08-17T12:19:16;11.40;;;6.40;;
75941;SDS011;64622;46.220;19.878;2023-08-17T12:21:42;12.85;;;6.35;;
75941;SDS011;64622;46.220;19.878;2023-08-17T12:24:09;10.35;;;6.00;;
75941;SDS011;64622;46.220;19.878;2023-08-17T12:26:40;12.27;;;6.87;;
75941;SDS011;64622;46.220;19.878;2023-08-17T12:29:09;12.07;;;7.07;;
75941;SDS011;64622;46.220;19.878;2023-08-17T12:31:35;11.25;;;6.82;;
75941;SDS011;64622;46.220;19.878;2023-08-17T12:34:02;13.02;;;6.90;;
75941;SDS011;64622;46.220;19.878;2023-08-17T12:36:34;13.13;;;7.22;;
75941;SDS011;64622;46.220;19.878;2023-08-17T12:39:01;9.65;;;6.40;;
75941;SDS011;64622;46.220;19.878;2023-08-17T12:41:30;11.60;;;6.60;;
75941;SDS011;64622;46.220;19.878;2023-08-17T12:43:56;12.27;;;7.12;;
75941;SDS011;64622;46.220;19.878;2023-08-17T12:46:25;10.82;;;5.78;;
75941;SDS011;64622;46.220;19.878;2023-08-17T12:48:52;10.93;;;6.28;;
75941;SDS011;64622;46.220;19.878;2023-08-17T12:51:18;11.82;;;6.43;;
75941;SDS011;64622;46.220;19.878;2023-08-17T12:53:45;10.47;;;6.37;;
75941;SDS011;64622;46.220;19.878;2023-08-17T12:56:11;12.43;;;6.37;;
75941;SDS011;64622;46.220;19.878;2023-08-17T12:58:38;10.57;;;7.03;;
75941;SDS011;64622;46.220;19.878;2023-08-17T13:01:04;11.48;;;7.40;;
75941;SDS011;64622;46.220;19.878;2023-08-17T13:03:31;19.40;;;11.52;;
75941;SDS011;64622;46.220;19.878;2023-08-17T13:05:58;11.30;;;7.67;;
75941;SDS011;64622;46.220;19.878;2023-08-17T13:08:24;11.15;;;6.12;;
75941;SDS011;64622;46.220;19.878;2023-08-17T13:10:51;13.25;;;7.05;;
75941;SDS011;64622;46.220;19.878;2023-08-17T13:13:17;11.70;;;7.62;;
75941;SDS011;64622;46.220;19.878;2023-08-17T13:15:44;11.75;;;7.28;;
75941;SDS011;64622;46.220;19.878;2023-08-17T13:18:11;10.77;;;6.97;;
75941;SDS011;64622;46.220;19.878;2023-08-17T13:20:37;13.88;;;7.55;;
75941;SDS011;64622;46.220;19.878;2023-08-17T13:23:04;11.93;;;7.47;;
75941;SDS011;64622;46.220;19.878;2023-08-17T13:25:31;13.38;;;7.55;;
75941;SDS011;64622;46.220;19.878;2023-08-17T13:27:58;13.13;;;7.47;;
75941;SDS011;64622;46.220;19.878;2023-08-17T13:30:24;13.17;;;7.50;;
75941;SDS011;64622;46.220;19.878;2023-08-17T13:32:51;13.18;;;7.05;;
75941;SDS011;64622;46.220;19.878;2023-08-17T13:35:18;12.30;;;7.07;;
75941;SDS011;64622;46.220;19.878;2023-08-17T13:37:44;11.68;;;7.35;;
75941;SDS011;64622;46.220;19.878;2023-08-17T13:40:11;12.20;;;7.30;;
75941;SDS011;64622;46.220;19.878;2023-08-17T13:42:38;10.73;;;7.30;;
75941;SDS011;64622;46.220;19.878;2023-08-17T13:45:04;11.57;;;6.82;;
75941;SDS011;64622;46.220;19.878;2023-08-17T13:47:31;14.68;;;6.60;;
75941;SDS011;64622;46.220;19.878;2023-08-17T13:49:58;11.35;;;7.20;;
75941;SDS011;64622;46.220;19.878;2023-08-17T13:52:24;12.02;;;6.35;;
75941;SDS011;64622;46.220;19.878;2023-08-17T13:54:51;12.37;;;7.27;;
75941;SDS011;64622;46.220;19.878;2023-08-17T13:57:18;10.52;;;6.60;;
75941;SDS011;64622;46.220;19.878;2023-08-17T13:59:45;14.48;;;6.80;;
75941;SDS011;64622;46.220;19.878;2023-08-17T14:02:11;12.37;;;7.97;;
75941;SDS011;64622;46.220;19.878;2023-08-17T14:04:38;12.25;;;8.23;;
75941;SDS011;64622;46.220;19.878;2023-08-17T14:07:05;12.00;;;8.07;;
75941;SDS011;64622;46.220;19.878;2023-08-17T14:09:31;13.20;;;8.45;;
75941;SDS011;64622;46.220;19.878;2023-08-17T14:11:58;15.13;;;8.27;;
75941;SDS011;64622;46.220;19.878;2023-08-17T14:14:25;13.13;;;8.18;;
75941;SDS011;64622;46.220;19.878;2023-08-17T14:16:52;13.02;;;8.02;;
75941;SDS011;64622;46.220;19.878;2023-08-17T14:19:19;13.43;;;8.23;;
75941;SDS011;64622;46.220;19.878;2023-08-17T14:21:45;14.82;;;8.23;;
75941;SDS011;64622;46.220;19.878;2023-08-17T14:24:12;14.25;;;8.45;;
75941;SDS011;64622;46.220;19.878;2023-08-17T14:26:39;14.70;;;8.68;;
75941;SDS011;64622;46.220;19.878;2023-08-17T14:29:05;15.98;;;9.40;;
75941;SDS011;64622;46.220;19.878;2023-08-17T14:31:31;14.50;;;8.57;;
75941;SDS011;64622;46.220;19.878;2023-08-17T14:33:58;13.30;;;8.85;;
75941;SDS011;64622;46.220;19.878;2023-08-17T14:36:25;12.90;;;8.68;;